This demonstration page uses our WeatherBlox Daily Observations layout. Learn more.

Left ArrowRight Arrow

36.17497, -115.13722

Hourly Observations for April 12, 2016

Temp ( °F °C ) Dew Point ( °F °C ) Humidity (%) Winds ( mph kmh ) Pressure ( in mb ) Visibility ( mi km ) Precip ( " mm )
12:53 am 00:53 Clear 58 14.4 50 10 75 75 N 3 6 30.1 1019 10 16.0934 0 0
1:53 am 01:53 Clear 57 13.9 49 9.4 74 74 N 5 7 30.09 1019 10 16.0934 0 0
2:53 am 02:53 Clear 57 13.9 49 9.4 74 74 NW 3 6 30.09 1019 10 16.0934 0 0
3:53 am 03:53 Clear 54 12.2 49 9.4 83 83 Calm 30.09 1019 10 16.0934 0 0
4:53 am 04:53 Clear 54 12.2 48 8.9 80 80 NW 7 11 30.09 1019 10 16.0934 0 0
5:53 am 05:53 Clear 54 12.2 48 8.9 80 80 Calm 30.1 1019 10 16.0934 0 0
6:53 am 06:53 Sunny 54 12.2 48 8.9 80 80 Calm 30.11 1020 10 16.0934 0 0
7:53 am 07:53 Sunny 59 15 47 8.3 64 64 Calm 30.12 1020 10 16.0934 0 0
8:53 am 08:53 Sunny 63 17.2 47 8.3 56 56 NNE 3 6 30.14 1021 10 16.0934 0 0
9:53 am 09:53 Sunny 64 17.8 48 8.9 56 56 E 5 7 30.14 1021 10 16.0934 0 0
10:53 am 10:53 Sunny 67 19.4 47 8.3 49 49 E 3 6 30.14 1021 10 16.0934 0 0
11:53 am 11:53 Sunny 69 20.6 45 7.2 42 42 ESE 5 7 30.12 1020 10 16.0934 0 0
12:53 pm 12:53 Sunny 69 20.6 43 6.1 39 39 VRB 3 6 30.1 1019 10 16.0934 0 0
1:53 pm 13:53 Sunny 73 22.8 43 6.1 34 34 SSE 8 13 30.08 1019 10 16.0934 0 0
2:53 pm 14:53 Sunny 75 23.9 42 5.6 31 31 ESE 5 7 30.05 1018 10 16.0934 0 0
3:53 pm 15:53 Sunny 76 24.4 41 5 29 29 VRB 7 11 30.03 1017 10 16.0934 0 0
4:53 pm 16:53 Sunny 77 25 41 5 28 28 SSE 9 15 30.01 1016 10 16.0934 0 0
5:53 pm 17:53 Sunny 77 25 42 5.6 29 29 S 7 11 30.01 1016 10 16.0934 0 0
6:53 pm 18:53 Sunny 76 24.4 38 3.3 25 25 SSE 9 15 30 1016 10 16.0934 0 0
7:53 pm 19:53 Clear 75 23.9 41 5 29 29 SSW 8 13 30 1016 10 16.0934 0 0
8:53 pm 20:53 Clear 73 22.8 42 5.6 33 33 SSW 7 11 30.02 1017 10 16.0934 0 0
9:53 pm 21:53 Clear 71 21.7 42 5.6 35 35 SSW 7 11 30.03 1017 10 16.0934 0 0
10:53 pm 22:53 Clear 69 20.6 42 5.6 38 38 SW 7 11 30.03 1017 10 16.0934 0 0
11:53 pm 23:53 Clear 67 19.4 42 5.6 41 41 W 6 9 30.04 1017 10 16.0934 0 0

Powered by AerisWeather